sensor_id;sensor_type;location;lat;lon;timestamp;P1;durP1;ratioP1;P2;durP2;ratioP2
59159;SDS011;44941;45.058;20.076;2022-10-31T00:00:22;66.68;;;37.03;;
59159;SDS011;44941;45.058;20.076;2022-10-31T00:02:48;66.57;;;35.70;;
59159;SDS011;44941;45.058;20.076;2022-10-31T00:05:14;62.80;;;35.42;;
59159;SDS011;44941;45.058;20.076;2022-10-31T00:07:40;59.08;;;34.83;;
59159;SDS011;44941;45.058;20.076;2022-10-31T00:10:07;59.70;;;34.17;;
59159;SDS011;44941;45.058;20.076;2022-10-31T00:12:33;62.35;;;35.38;;
59159;SDS011;44941;45.058;20.076;2022-10-31T00:14:59;64.40;;;36.08;;
59159;SDS011;44941;45.058;20.076;2022-10-31T00:17:25;61.22;;;34.85;;
59159;SDS011;44941;45.058;20.076;2022-10-31T00:19:51;75.47;;;35.42;;
59159;SDS011;44941;45.058;20.076;2022-10-31T00:22:17;61.22;;;34.45;;
59159;SDS011;44941;45.058;20.076;2022-10-31T00:24:43;64.82;;;35.95;;
59159;SDS011;44941;45.058;20.076;2022-10-31T00:27:09;72.65;;;36.47;;
59159;SDS011;44941;45.058;20.076;2022-10-31T00:29:35;68.63;;;35.33;;
59159;SDS011;44941;45.058;20.076;2022-10-31T00:32:01;81.10;;;37.03;;
59159;SDS011;44941;45.058;20.076;2022-10-31T00:34:27;79.85;;;35.42;;
59159;SDS011;44941;45.058;20.076;2022-10-31T00:36:53;72.43;;;35.17;;
59159;SDS011;44941;45.058;20.076;2022-10-31T00:39:19;70.18;;;36.40;;
59159;SDS011;44941;45.058;20.076;2022-10-31T00:41:46;64.72;;;34.42;;
59159;SDS011;44941;45.058;20.076;2022-10-31T00:44:12;67.60;;;35.45;;
59159;SDS011;44941;45.058;20.076;2022-10-31T00:46:38;69.80;;;35.35;;
59159;SDS011;44941;45.058;20.076;2022-10-31T00:49:04;66.97;;;33.67;;
59159;SDS011;44941;45.058;20.076;2022-10-31T00:51:30;67.22;;;33.40;;
59159;SDS011;44941;45.058;20.076;2022-10-31T00:53:56;59.65;;;33.03;;
59159;SDS011;44941;45.058;20.076;2022-10-31T00:56:22;57.45;;;33.63;;
59159;SDS011;44941;45.058;20.076;2022-10-31T00:58:48;55.30;;;33.38;;
59159;SDS011;44941;45.058;20.076;2022-10-31T01:01:14;57.47;;;34.38;;
59159;SDS011;44941;45.058;20.076;2022-10-31T01:03:40;60.58;;;33.70;;
59159;SDS011;44941;45.058;20.076;2022-10-31T01:06:10;62.80;;;34.35;;
59159;SDS011;44941;45.058;20.076;2022-10-31T01:08:36;64.32;;;34.35;;
59159;SDS011;44941;45.058;20.076;2022-10-31T01:19:26;68.68;;;33.33;;
59159;SDS011;44941;45.058;20.076;2022-10-31T01:21:56;67.53;;;34.53;;
59159;SDS011;44941;45.058;20.076;2022-10-31T01:24:22;60.63;;;34.30;;
59159;SDS011;44941;45.058;20.076;2022-10-31T01:26:48;55.63;;;32.65;;
59159;SDS011;44941;45.058;20.076;2022-10-31T01:29:14;66.22;;;35.38;;
59159;SDS011;44941;45.058;20.076;2022-10-31T01:31:40;64.63;;;35.22;;
59159;SDS011;44941;45.058;20.076;2022-10-31T01:34:13;60.65;;;33.92;;
59159;SDS011;44941;45.058;20.076;2022-10-31T01:36:39;62.30;;;35.15;;
59159;SDS011;44941;45.058;20.076;2022-10-31T01:39:09;61.47;;;35.17;;
59159;SDS011;44941;45.058;20.076;2022-10-31T01:41:36;64.68;;;34.58;;
59159;SDS011;44941;45.058;20.076;2022-10-31T01:47:15;62.50;;;34.92;;
59159;SDS011;44941;45.058;20.076;2022-10-31T01:49:49;65.80;;;35.15;;
59159;SDS011;44941;45.058;20.076;2022-10-31T01:54:44;67.32;;;34.67;;
59159;SDS011;44941;45.058;20.076;2022-10-31T01:57:12;65.75;;;34.83;;
59159;SDS011;44941;45.058;20.076;2022-10-31T01:59:40;72.07;;;35.28;;
59159;SDS011;44941;45.058;20.076;2022-10-31T02:04:32;64.65;;;33.00;;
59159;SDS011;44941;45.058;20.076;2022-10-31T02:07:04;62.10;;;33.50;;
59159;SDS011;44941;45.058;20.076;2022-10-31T02:09:30;61.53;;;34.00;;
59159;SDS011;44941;45.058;20.076;2022-10-31T02:11:57;66.45;;;34.15;;
59159;SDS011;44941;45.058;20.076;2022-10-31T02:14:25;66.05;;;34.22;;
59159;SDS011;44941;45.058;20.076;2022-10-31T02:16:53;65.68;;;35.33;;
59159;SDS011;44941;45.058;20.076;2022-10-31T02:19:42;59.10;;;33.10;;
59159;SDS011;44941;45.058;20.076;2022-10-31T02:22:16;59.88;;;33.22;;
59159;SDS011;44941;45.058;20.076;2022-10-31T02:24:51;56.17;;;32.08;;
59159;SDS011;44941;45.058;20.076;2022-10-31T02:35:10;64.22;;;33.28;;
59159;SDS011;44941;45.058;20.076;2022-10-31T02:40:29;56.13;;;33.08;;
59159;SDS011;44941;45.058;20.076;2022-10-31T02:48:26;52.67;;;30.00;;
59159;SDS011;44941;45.058;20.076;2022-10-31T02:50:58;52.67;;;31.52;;
59159;SDS011;44941;45.058;20.076;2022-10-31T02:53:25;58.50;;;33.03;;
59159;SDS011;44941;45.058;20.076;2022-10-31T02:55:58;54.88;;;32.22;;
59159;SDS011;44941;45.058;20.076;2022-10-31T02:58:26;52.42;;;30.27;;
59159;SDS011;44941;45.058;20.076;2022-10-31T03:03:40;59.58;;;31.20;;
59159;SDS011;44941;45.058;20.076;2022-10-31T03:11:09;51.97;;;31.90;;
59159;SDS011;44941;45.058;20.076;2022-10-31T03:19:42;49.08;;;29.70;;
59159;SDS011;44941;45.058;20.076;2022-10-31T03:24:37;49.22;;;29.95;;
59159;SDS011;44941;45.058;20.076;2022-10-31T03:27:04;47.28;;;29.00;;
59159;SDS011;44941;45.058;20.076;2022-10-31T03:29:34;47.08;;;29.95;;
59159;SDS011;44941;45.058;20.076;2022-10-31T03:32:15;45.00;;;29.17;;
59159;SDS011;44941;45.058;20.076;2022-10-31T03:34:42;46.63;;;29.73;;
59159;SDS011;44941;45.058;20.076;2022-10-31T03:37:10;45.92;;;29.73;;
59159;SDS011;44941;45.058;20.076;2022-10-31T03:39:37;47.63;;;29.77;;
59159;SDS011;44941;45.058;20.076;2022-10-31T03:42:05;50.65;;;28.98;;
59159;SDS011;44941;45.058;20.076;2022-10-31T03:44:32;46.97;;;28.73;;
59159;SDS011;44941;45.058;20.076;2022-10-31T03:46:58;52.20;;;30.63;;
59159;SDS011;44941;45.058;20.076;2022-10-31T03:49:25;53.33;;;28.90;;
59159;SDS011;44941;45.058;20.076;2022-10-31T03:54:46;51.78;;;30.25;;
59159;SDS011;44941;45.058;20.076;2022-10-31T03:58:03;51.30;;;30.23;;
59159;SDS011;44941;45.058;20.076;2022-10-31T04:00:05;50.03;;;29.52;;
59159;SDS011;44941;45.058;20.076;2022-10-31T04:02:33;46.65;;;29.48;;
59159;SDS011;44941;45.058;20.076;2022-10-31T04:04:59;43.47;;;28.63;;
59159;SDS011;44941;45.058;20.076;2022-10-31T04:07:27;48.10;;;29.40;;
59159;SDS011;44941;45.058;20.076;2022-10-31T04:12:20;46.85;;;27.70;;
59159;SDS011;44941;45.058;20.076;2022-10-31T04:14:47;47.85;;;29.45;;
59159;SDS011;44941;45.058;20.076;2022-10-31T04:19:41;44.75;;;27.33;;
59159;SDS011;44941;45.058;20.076;2022-10-31T04:22:07;47.60;;;28.88;;
59159;SDS011;44941;45.058;20.076;2022-10-31T04:24:33;49.08;;;30.00;;
59159;SDS011;44941;45.058;20.076;2022-10-31T04:26:59;46.80;;;28.80;;
59159;SDS011;44941;45.058;20.076;2022-10-31T04:35:32;50.72;;;28.17;;
59159;SDS011;44941;45.058;20.076;2022-10-31T04:37:58;44.30;;;27.73;;
59159;SDS011;44941;45.058;20.076;2022-10-31T04:40:24;49.50;;;29.83;;
59159;SDS011;44941;45.058;20.076;2022-10-31T04:42:50;48.63;;;28.52;;
59159;SDS011;44941;45.058;20.076;2022-10-31T04:45:18;45.78;;;27.90;;
59159;SDS011;44941;45.058;20.076;2022-10-31T04:47:44;46.67;;;28.33;;
59159;SDS011;44941;45.058;20.076;2022-10-31T04:50:10;46.47;;;28.17;;
59159;SDS011;44941;45.058;20.076;2022-10-31T04:52:39;45.25;;;27.38;;
59159;SDS011;44941;45.058;20.076;2022-10-31T04:55:05;47.45;;;27.85;;
59159;SDS011;44941;45.058;20.076;2022-10-31T04:57:32;46.58;;;28.30;;
59159;SDS011;44941;45.058;20.076;2022-10-31T05:03:01;47.70;;;28.30;;
59159;SDS011;44941;45.058;20.076;2022-10-31T05:05:28;47.83;;;29.23;;
59159;SDS011;44941;45.058;20.076;2022-10-31T05:07:55;46.00;;;27.85;;
59159;SDS011;44941;45.058;20.076;2022-10-31T05:10:28;45.13;;;27.30;;
59159;SDS011;44941;45.058;20.076;2022-10-31T05:12:55;44.92;;;27.42;;
59159;SDS011;44941;45.058;20.076;2022-10-31T05:21:10;45.97;;;27.40;;
59159;SDS011;44941;45.058;20.076;2022-10-31T05:23:36;40.30;;;26.30;;
59159;SDS011;44941;45.058;20.076;2022-10-31T05:26:02;43.25;;;26.63;;
59159;SDS011;44941;45.058;20.076;2022-10-31T05:28:28;43.17;;;27.50;;
59159;SDS011;44941;45.058;20.076;2022-10-31T05:30:54;46.30;;;27.35;;
59159;SDS011;44941;45.058;20.076;2022-10-31T05:33:20;54.80;;;28.30;;
59159;SDS011;44941;45.058;20.076;2022-10-31T05:35:46;43.53;;;26.15;;
59159;SDS011;44941;45.058;20.076;2022-10-31T05:38:13;42.50;;;26.58;;
59159;SDS011;44941;45.058;20.076;2022-10-31T05:40:39;57.15;;;28.10;;
59159;SDS011;44941;45.058;20.076;2022-10-31T05:43:05;44.03;;;27.27;;
59159;SDS011;44941;45.058;20.076;2022-10-31T05:45:31;40.17;;;25.10;;
59159;SDS011;44941;45.058;20.076;2022-10-31T05:48:05;42.58;;;26.45;;
59159;SDS011;44941;45.058;20.076;2022-10-31T05:50:31;42.25;;;26.83;;
59159;SDS011;44941;45.058;20.076;2022-10-31T05:53:01;44.05;;;26.27;;
59159;SDS011;44941;45.058;20.076;2022-10-31T05:55:27;44.20;;;27.40;;
59159;SDS011;44941;45.058;20.076;2022-10-31T05:57:54;44.00;;;26.90;;
59159;SDS011;44941;45.058;20.076;2022-10-31T06:00:21;40.75;;;25.65;;
59159;SDS011;44941;45.058;20.076;2022-10-31T06:02:47;52.65;;;29.05;;
59159;SDS011;44941;45.058;20.076;2022-10-31T06:05:13;49.53;;;28.55;;
59159;SDS011;44941;45.058;20.076;2022-10-31T06:07:40;44.63;;;27.60;;
59159;SDS011;44941;45.058;20.076;2022-10-31T06:10:06;40.72;;;25.92;;
59159;SDS011;44941;45.058;20.076;2022-10-31T06:12:33;42.92;;;26.60;;
59159;SDS011;44941;45.058;20.076;2022-10-31T06:15:03;44.22;;;28.20;;
59159;SDS011;44941;45.058;20.076;2022-10-31T06:17:30;46.30;;;27.70;;
59159;SDS011;44941;45.058;20.076;2022-10-31T06:19:56;43.45;;;26.52;;
59159;SDS011;44941;45.058;20.076;2022-10-31T06:22:22;48.92;;;29.17;;
59159;SDS011;44941;45.058;20.076;2022-10-31T06:24:48;47.28;;;27.58;;
59159;SDS011;44941;45.058;20.076;2022-10-31T06:27:14;47.25;;;28.50;;
59159;SDS011;44941;45.058;20.076;2022-10-31T06:29:40;47.50;;;28.25;;
59159;SDS011;44941;45.058;20.076;2022-10-31T06:32:08;46.35;;;28.38;;
59159;SDS011;44941;45.058;20.076;2022-10-31T06:34:35;44.33;;;27.20;;
59159;SDS011;44941;45.058;20.076;2022-10-31T06:37:01;51.05;;;30.15;;
59159;SDS011;44941;45.058;20.076;2022-10-31T06:39:27;51.47;;;28.65;;
59159;SDS011;44941;45.058;20.076;2022-10-31T06:41:53;48.70;;;29.90;;
59159;SDS011;44941;45.058;20.076;2022-10-31T06:44:19;55.67;;;29.88;;
59159;SDS011;44941;45.058;20.076;2022-10-31T06:46:46;59.38;;;29.67;;
59159;SDS011;44941;45.058;20.076;2022-10-31T06:49:12;48.67;;;28.98;;
59159;SDS011;44941;45.058;20.076;2022-10-31T06:51:39;51.35;;;30.50;;
59159;SDS011;44941;45.058;20.076;2022-10-31T06:54:05;49.67;;;29.67;;
59159;SDS011;44941;45.058;20.076;2022-10-31T06:56:31;52.63;;;30.42;;
59159;SDS011;44941;45.058;20.076;2022-10-31T06:58:57;59.00;;;33.38;;
59159;SDS011;44941;45.058;20.076;2022-10-31T07:01:23;50.42;;;30.60;;
59159;SDS011;44941;45.058;20.076;2022-10-31T07:03:49;58.25;;;32.47;;
59159;SDS011;44941;45.058;20.076;2022-10-31T07:06:15;57.78;;;33.30;;
59159;SDS011;44941;45.058;20.076;2022-10-31T07:08:41;54.65;;;31.08;;
59159;SDS011;44941;45.058;20.076;2022-10-31T07:11:07;58.15;;;33.17;;
59159;SDS011;44941;45.058;20.076;2022-10-31T07:13:33;63.80;;;33.60;;
59159;SDS011;44941;45.058;20.076;2022-10-31T07:21:57;67.00;;;31.05;;
59159;SDS011;44941;45.058;20.076;2022-10-31T07:24:23;57.05;;;30.15;;
59159;SDS011;44941;45.058;20.076;2022-10-31T07:26:49;56.67;;;29.92;;
59159;SDS011;44941;45.058;20.076;2022-10-31T07:29:15;62.85;;;32.25;;
59159;SDS011;44941;45.058;20.076;2022-10-31T07:31:41;60.35;;;32.50;;
59159;SDS011;44941;45.058;20.076;2022-10-31T07:34:09;71.15;;;35.60;;
59159;SDS011;44941;45.058;20.076;2022-10-31T07:36:35;77.72;;;36.72;;
59159;SDS011;44941;45.058;20.076;2022-10-31T07:39:01;63.95;;;34.53;;
59159;SDS011;44941;45.058;20.076;2022-10-31T07:41:27;65.55;;;35.85;;
59159;SDS011;44941;45.058;20.076;2022-10-31T07:43:53;70.30;;;36.63;;
59159;SDS011;44941;45.058;20.076;2022-10-31T07:46:21;72.47;;;37.20;;
59159;SDS011;44941;45.058;20.076;2022-10-31T07:48:47;71.40;;;35.42;;
59159;SDS011;44941;45.058;20.076;2022-10-31T07:51:13;64.88;;;34.35;;
59159;SDS011;44941;45.058;20.076;2022-10-31T07:53:39;64.10;;;33.55;;
59159;SDS011;44941;45.058;20.076;2022-10-31T07:56:05;58.55;;;31.50;;
59159;SDS011;44941;45.058;20.076;2022-10-31T07:58:31;53.05;;;29.88;;
59159;SDS011;44941;45.058;20.076;2022-10-31T08:00:57;58.10;;;31.92;;
59159;SDS011;44941;45.058;20.076;2022-10-31T08:03:23;57.92;;;32.50;;
59159;SDS011;44941;45.058;20.076;2022-10-31T08:05:49;56.25;;;32.63;;
59159;SDS011;44941;45.058;20.076;2022-10-31T08:08:16;59.85;;;32.85;;
59159;SDS011;44941;45.058;20.076;2022-10-31T08:10:42;61.22;;;33.45;;
59159;SDS011;44941;45.058;20.076;2022-10-31T08:13:12;63.13;;;36.35;;
59159;SDS011;44941;45.058;20.076;2022-10-31T08:15:38;58.90;;;34.47;;
59159;SDS011;44941;45.058;20.076;2022-10-31T08:18:06;60.72;;;34.90;;
59159;SDS011;44941;45.058;20.076;2022-10-31T08:20:36;60.80;;;33.92;;
59159;SDS011;44941;45.058;20.076;2022-10-31T08:23:03;55.95;;;32.58;;
59159;SDS011;44941;45.058;20.076;2022-10-31T08:25:30;53.70;;;31.77;;
59159;SDS011;44941;45.058;20.076;2022-10-31T08:27:56;57.83;;;33.50;;
59159;SDS011;44941;45.058;20.076;2022-10-31T08:30:23;59.92;;;33.70;;
59159;SDS011;44941;45.058;20.076;2022-10-31T08:33:07;59.33;;;34.33;;
59159;SDS011;44941;45.058;20.076;2022-10-31T08:35:34;54.80;;;32.65;;
59159;SDS011;44941;45.058;20.076;2022-10-31T08:38:00;58.17;;;33.72;;
59159;SDS011;44941;45.058;20.076;2022-10-31T08:40:27;57.63;;;34.17;;
59159;SDS011;44941;45.058;20.076;2022-10-31T08:43:10;64.95;;;37.20;;
59159;SDS011;44941;45.058;20.076;2022-10-31T08:45:37;75.88;;;48.35;;
59159;SDS011;44941;45.058;20.076;2022-10-31T08:48:04;69.90;;;42.10;;
59159;SDS011;44941;45.058;20.076;2022-10-31T08:50:31;66.70;;;37.13;;
59159;SDS011;44941;45.058;20.076;2022-10-31T08:53:01;63.90;;;34.58;;
59159;SDS011;44941;45.058;20.076;2022-10-31T08:55:27;52.30;;;33.85;;
59159;SDS011;44941;45.058;20.076;2022-10-31T08:57:54;56.92;;;34.08;;
59159;SDS011;44941;45.058;20.076;2022-10-31T09:00:20;56.37;;;33.13;;
59159;SDS011;44941;45.058;20.076;2022-10-31T09:02:46;59.28;;;32.53;;
59159;SDS011;44941;45.058;20.076;2022-10-31T09:05:13;55.38;;;32.70;;
59159;SDS011;44941;45.058;20.076;2022-10-31T09:07:39;57.38;;;33.83;;
59159;SDS011;44941;45.058;20.076;2022-10-31T09:10:05;60.40;;;35.20;;
59159;SDS011;44941;45.058;20.076;2022-10-31T09:12:31;55.40;;;33.33;;
59159;SDS011;44941;45.058;20.076;2022-10-31T09:14:57;59.40;;;35.03;;
59159;SDS011;44941;45.058;20.076;2022-10-31T09:17:25;57.53;;;32.67;;
59159;SDS011;44941;45.058;20.076;2022-10-31T09:19:51;60.33;;;35.15;;
59159;SDS011;44941;45.058;20.076;2022-10-31T09:22:17;59.38;;;35.50;;
59159;SDS011;44941;45.058;20.076;2022-10-31T09:24:43;65.65;;;34.90;;
59159;SDS011;44941;45.058;20.076;2022-10-31T09:27:09;60.78;;;35.25;;
59159;SDS011;44941;45.058;20.076;2022-10-31T09:29:36;64.20;;;35.67;;
59159;SDS011;44941;45.058;20.076;2022-10-31T09:32:02;57.40;;;33.65;;
59159;SDS011;44941;45.058;20.076;2022-10-31T09:34:28;57.20;;;34.78;;
59159;SDS011;44941;45.058;20.076;2022-10-31T09:36:54;61.15;;;34.58;;
59159;SDS011;44941;45.058;20.076;2022-10-31T09:39:20;62.47;;;34.67;;
59159;SDS011;44941;45.058;20.076;2022-10-31T09:41:50;59.47;;;34.25;;
59159;SDS011;44941;45.058;20.076;2022-10-31T09:46:51;61.38;;;35.83;;
59159;SDS011;44941;45.058;20.076;2022-10-31T09:49:36;62.88;;;35.40;;
59159;SDS011;44941;45.058;20.076;2022-10-31T09:52:04;65.82;;;36.30;;
59159;SDS011;44941;45.058;20.076;2022-10-31T09:57:00;66.45;;;37.10;;
59159;SDS011;44941;45.058;20.076;2022-10-31T09:59:37;62.65;;;36.45;;
59159;SDS011;44941;45.058;20.076;2022-10-31T10:04:33;62.28;;;35.40;;
59159;SDS011;44941;45.058;20.076;2022-10-31T10:07:02;61.83;;;35.95;;
59159;SDS011;44941;45.058;20.076;2022-10-31T10:09:31;66.97;;;37.35;;
59159;SDS011;44941;45.058;20.076;2022-10-31T10:14:32;62.22;;;37.90;;
59159;SDS011;44941;45.058;20.076;2022-10-31T10:25:25;71.10;;;39.70;;
59159;SDS011;44941;45.058;20.076;2022-10-31T10:30:38;75.38;;;44.42;;
59159;SDS011;44941;45.058;20.076;2022-10-31T10:33:16;107.95;;;63.15;;
59159;SDS011;44941;45.058;20.076;2022-10-31T10:35:58;75.03;;;44.53;;
59159;SDS011;44941;45.058;20.076;2022-10-31T10:40:54;74.38;;;41.83;;
59159;SDS011;44941;45.058;20.076;2022-10-31T10:43:26;73.47;;;40.45;;
59159;SDS011;44941;45.058;20.076;2022-10-31T10:45:55;74.80;;;40.72;;
59159;SDS011;44941;45.058;20.076;2022-10-31T10:48:43;74.63;;;38.83;;
59159;SDS011;44941;45.058;20.076;2022-10-31T10:51:15;74.47;;;40.33;;
59159;SDS011;44941;45.058;20.076;2022-10-31T10:56:40;71.03;;;40.25;;
59159;SDS011;44941;45.058;20.076;2022-10-31T10:59:10;75.07;;;40.45;;
59159;SDS011;44941;45.058;20.076;2022-10-31T11:01:38;69.38;;;40.88;;
59159;SDS011;44941;45.058;20.076;2022-10-31T11:04:07;73.53;;;41.58;;
59159;SDS011;44941;45.058;20.076;2022-10-31T11:06:40;73.43;;;41.55;;
59159;SDS011;44941;45.058;20.076;2022-10-31T11:09:09;75.95;;;41.22;;
59159;SDS011;44941;45.058;20.076;2022-10-31T11:11:35;73.38;;;40.40;;
59159;SDS011;44941;45.058;20.076;2022-10-31T11:14:05;73.47;;;42.22;;
59159;SDS011;44941;45.058;20.076;2022-10-31T11:16:38;70.57;;;41.38;;
59159;SDS011;44941;45.058;20.076;2022-10-31T11:19:08;79.43;;;43.83;;
59159;SDS011;44941;45.058;20.076;2022-10-31T11:21:42;81.25;;;44.83;;
59159;SDS011;44941;45.058;20.076;2022-10-31T11:26:38;75.18;;;40.30;;
59159;SDS011;44941;45.058;20.076;2022-10-31T11:29:05;93.40;;;47.03;;
59159;SDS011;44941;45.058;20.076;2022-10-31T11:31:37;75.22;;;44.17;;
59159;SDS011;44941;45.058;20.076;2022-10-31T11:34:04;77.90;;;45.00;;
59159;SDS011;44941;45.058;20.076;2022-10-31T11:36:32;85.50;;;46.63;;
59159;SDS011;44941;45.058;20.076;2022-10-31T11:38:59;99.53;;;52.28;;
59159;SDS011;44941;45.058;20.076;2022-10-31T11:44:03;87.82;;;48.30;;
59159;SDS011;44941;45.058;20.076;2022-10-31T11:46:33;85.68;;;48.22;;
59159;SDS011;44941;45.058;20.076;2022-10-31T11:49:00;86.20;;;48.05;;
59159;SDS011;44941;45.058;20.076;2022-10-31T11:51:27;82.07;;;46.25;;
59159;SDS011;44941;45.058;20.076;2022-10-31T11:53:54;81.15;;;46.17;;
59159;SDS011;44941;45.058;20.076;2022-10-31T11:56:21;78.32;;;45.60;;
59159;SDS011;44941;45.058;20.076;2022-10-31T11:59:01;79.00;;;45.58;;
59159;SDS011;44941;45.058;20.076;2022-10-31T12:01:29;69.65;;;43.40;;
59159;SDS011;44941;45.058;20.076;2022-10-31T12:04:02;74.00;;;43.47;;
59159;SDS011;44941;45.058;20.076;2022-10-31T12:06:39;70.13;;;41.55;;
59159;SDS011;44941;45.058;20.076;2022-10-31T12:09:18;63.90;;;38.80;;
59159;SDS011;44941;45.058;20.076;2022-10-31T12:30:21;61.97;;;38.40;;
59159;SDS011;44941;45.058;20.076;2022-10-31T12:56:12;60.83;;;37.05;;
59159;SDS011;44941;45.058;20.076;2022-10-31T12:58:50;59.75;;;36.65;;
59159;SDS011;44941;45.058;20.076;2022-10-31T13:01:20;64.47;;;37.25;;
59159;SDS011;44941;45.058;20.076;2022-10-31T13:06:15;61.70;;;34.67;;
59159;SDS011;44941;45.058;20.076;2022-10-31T13:14:24;51.35;;;33.10;;
59159;SDS011;44941;45.058;20.076;2022-10-31T13:16:51;53.45;;;33.33;;
59159;SDS011;44941;45.058;20.076;2022-10-31T13:19:25;53.17;;;32.05;;
59159;SDS011;44941;45.058;20.076;2022-10-31T13:24:38;52.88;;;32.22;;
59159;SDS011;44941;45.058;20.076;2022-10-31T13:32:20;50.78;;;30.35;;
59159;SDS011;44941;45.058;20.076;2022-10-31T13:34:47;47.20;;;30.20;;
59159;SDS011;44941;45.058;20.076;2022-10-31T13:40:12;46.25;;;30.08;;
59159;SDS011;44941;45.058;20.076;2022-10-31T13:45:16;48.95;;;31.48;;
59159;SDS011;44941;45.058;20.076;2022-10-31T13:47:42;49.37;;;31.23;;
59159;SDS011;44941;45.058;20.076;2022-10-31T13:52:43;53.42;;;31.60;;
59159;SDS011;44941;45.058;20.076;2022-10-31T13:57:55;47.25;;;30.40;;
59159;SDS011;44941;45.058;20.076;2022-10-31T14:00:25;49.63;;;29.90;;
59159;SDS011;44941;45.058;20.076;2022-10-31T14:05:54;43.33;;;28.67;;
59159;SDS011;44941;45.058;20.076;2022-10-31T14:08:22;47.20;;;29.80;;
59159;SDS011;44941;45.058;20.076;2022-10-31T14:10:50;48.08;;;30.13;;
59159;SDS011;44941;45.058;20.076;2022-10-31T14:15:51;45.15;;;27.83;;
59159;SDS011;44941;45.058;20.076;2022-10-31T14:18:22;51.00;;;28.17;;
59159;SDS011;44941;45.058;20.076;2022-10-31T14:20:48;54.20;;;28.05;;
59159;SDS011;44941;45.058;20.076;2022-10-31T14:26:06;50.35;;;29.42;;
59159;SDS011;44941;45.058;20.076;2022-10-31T14:28:33;52.13;;;29.15;;
59159;SDS011;44941;45.058;20.076;2022-10-31T14:30:59;50.47;;;29.88;;
59159;SDS011;44941;45.058;20.076;2022-10-31T14:51:54;52.45;;;28.52;;
59159;SDS011;44941;45.058;20.076;2022-10-31T14:54:28;49.03;;;26.38;;
59159;SDS011;44941;45.058;20.076;2022-10-31T14:57:15;50.13;;;26.48;;
59159;SDS011;44941;45.058;20.076;2022-10-31T14:59:43;46.60;;;26.27;;
59159;SDS011;44941;45.058;20.076;2022-10-31T15:04:39;51.15;;;26.60;;
59159;SDS011;44941;45.058;20.076;2022-10-31T15:07:16;52.33;;;26.08;;
59159;SDS011;44941;45.058;20.076;2022-10-31T15:09:43;49.10;;;26.50;;
59159;SDS011;44941;45.058;20.076;2022-10-31T15:15:12;49.38;;;26.02;;
59159;SDS011;44941;45.058;20.076;2022-10-31T15:17:43;47.70;;;27.20;;
59159;SDS011;44941;45.058;20.076;2022-10-31T15:20:11;46.03;;;25.50;;
59159;SDS011;44941;45.058;20.076;2022-10-31T15:22:37;45.45;;;25.70;;
59159;SDS011;44941;45.058;20.076;2022-10-31T15:25:04;47.55;;;25.15;;
59159;SDS011;44941;45.058;20.076;2022-10-31T15:27:31;46.17;;;26.05;;
59159;SDS011;44941;45.058;20.076;2022-10-31T15:29:58;51.88;;;28.58;;
59159;SDS011;44941;45.058;20.076;2022-10-31T15:32:27;53.00;;;29.83;;
59159;SDS011;44941;45.058;20.076;2022-10-31T15:34:54;52.63;;;29.52;;
59159;SDS011;44941;45.058;20.076;2022-10-31T15:37:23;52.90;;;26.38;;
59159;SDS011;44941;45.058;20.076;2022-10-31T15:39:50;51.47;;;25.52;;
59159;SDS011;44941;45.058;20.076;2022-10-31T15:42:18;48.03;;;25.60;;
59159;SDS011;44941;45.058;20.076;2022-10-31T15:44:46;45.75;;;25.58;;
59159;SDS011;44941;45.058;20.076;2022-10-31T15:47:17;46.42;;;24.20;;
59159;SDS011;44941;45.058;20.076;2022-10-31T15:49:50;43.50;;;23.52;;
59159;SDS011;44941;45.058;20.076;2022-10-31T15:52:19;44.45;;;24.27;;
59159;SDS011;44941;45.058;20.076;2022-10-31T15:54:51;42.05;;;22.05;;
59159;SDS011;44941;45.058;20.076;2022-10-31T15:57:20;46.85;;;22.83;;
59159;SDS011;44941;45.058;20.076;2022-10-31T15:59:47;44.78;;;22.70;;
59159;SDS011;44941;45.058;20.076;2022-10-31T16:02:14;46.80;;;22.97;;
59159;SDS011;44941;45.058;20.076;2022-10-31T16:04:57;41.88;;;22.58;;
59159;SDS011;44941;45.058;20.076;2022-10-31T16:07:24;40.85;;;21.75;;
59159;SDS011;44941;45.058;20.076;2022-10-31T16:09:54;42.42;;;22.23;;
59159;SDS011;44941;45.058;20.076;2022-10-31T16:12:22;43.00;;;22.38;;
59159;SDS011;44941;45.058;20.076;2022-10-31T16:14:49;41.70;;;21.98;;
59159;SDS011;44941;45.058;20.076;2022-10-31T16:17:17;46.88;;;24.40;;
59159;SDS011;44941;45.058;20.076;2022-10-31T16:19:54;43.95;;;24.10;;
59159;SDS011;44941;45.058;20.076;2022-10-31T16:22:35;44.67;;;25.50;;
59159;SDS011;44941;45.058;20.076;2022-10-31T16:25:12;50.13;;;27.23;;
59159;SDS011;44941;45.058;20.076;2022-10-31T16:27:46;48.45;;;27.60;;
59159;SDS011;44941;45.058;20.076;2022-10-31T16:35:28;47.30;;;25.38;;
59159;SDS011;44941;45.058;20.076;2022-10-31T16:37:57;48.95;;;25.17;;
59159;SDS011;44941;45.058;20.076;2022-10-31T16:40:23;48.90;;;24.90;;
59159;SDS011;44941;45.058;20.076;2022-10-31T16:42:50;43.47;;;23.38;;
59159;SDS011;44941;45.058;20.076;2022-10-31T16:47:42;42.45;;;20.90;;
59159;SDS011;44941;45.058;20.076;2022-10-31T16:50:13;40.33;;;21.80;;
59159;SDS011;44941;45.058;20.076;2022-10-31T16:52:40;44.40;;;21.50;;
59159;SDS011;44941;45.058;20.076;2022-10-31T16:55:09;48.05;;;23.75;;
59159;SDS011;44941;45.058;20.076;2022-10-31T16:57:35;50.47;;;26.27;;
59159;SDS011;44941;45.058;20.076;2022-10-31T17:00:02;54.20;;;28.55;;
59159;SDS011;44941;45.058;20.076;2022-10-31T17:02:28;52.88;;;28.67;;
59159;SDS011;44941;45.058;20.076;2022-10-31T17:04:55;50.58;;;25.52;;
59159;SDS011;44941;45.058;20.076;2022-10-31T17:07:21;52.78;;;25.27;;
59159;SDS011;44941;45.058;20.076;2022-10-31T17:09:56;50.65;;;24.25;;
59159;SDS011;44941;45.058;20.076;2022-10-31T17:12:22;42.85;;;23.10;;
59159;SDS011;44941;45.058;20.076;2022-10-31T17:17:16;50.92;;;26.67;;
59159;SDS011;44941;45.058;20.076;2022-10-31T17:19:42;49.90;;;25.48;;
59159;SDS011;44941;45.058;20.076;2022-10-31T17:22:10;51.72;;;26.75;;
59159;SDS011;44941;45.058;20.076;2022-10-31T17:24:36;51.78;;;26.33;;
59159;SDS011;44941;45.058;20.076;2022-10-31T17:27:02;50.13;;;26.05;;
59159;SDS011;44941;45.058;20.076;2022-10-31T17:29:28;51.38;;;27.40;;
59159;SDS011;44941;45.058;20.076;2022-10-31T17:31:55;50.40;;;26.73;;
59159;SDS011;44941;45.058;20.076;2022-10-31T17:34:21;53.47;;;27.55;;
59159;SDS011;44941;45.058;20.076;2022-10-31T17:36:50;51.95;;;26.00;;
59159;SDS011;44941;45.058;20.076;2022-10-31T17:39:17;53.67;;;27.00;;
59159;SDS011;44941;45.058;20.076;2022-10-31T17:41:43;50.17;;;25.50;;
59159;SDS011;44941;45.058;20.076;2022-10-31T17:44:10;49.85;;;25.75;;
59159;SDS011;44941;45.058;20.076;2022-10-31T17:46:36;56.42;;;25.23;;
59159;SDS011;44941;45.058;20.076;2022-10-31T17:49:03;47.72;;;25.08;;
59159;SDS011;44941;45.058;20.076;2022-10-31T17:51:31;48.67;;;26.08;;
59159;SDS011;44941;45.058;20.076;2022-10-31T17:53:57;54.75;;;25.50;;